createdAt,value
2017-05-14T00:02:02.027Z,16.90
2017-05-14T00:04:31.032Z,17.00
2017-05-14T00:07:00.003Z,16.60
2017-05-14T00:09:28.242Z,16.80
2017-05-14T00:11:56.507Z,17.00
2017-05-14T00:14:24.775Z,17.00
2017-05-14T00:16:53.022Z,17.10
2017-05-14T00:19:21.299Z,16.90
2017-05-14T00:21:50.293Z,16.80
2017-05-14T00:24:19.275Z,16.80
2017-05-14T00:26:48.284Z,16.80
2017-05-14T00:29:17.244Z,16.70
2017-05-14T00:31:46.722Z,16.60
2017-05-14T00:34:14.990Z,16.60
2017-05-14T00:36:43.229Z,16.60
2017-05-14T00:39:12.278Z,16.60
2017-05-14T00:41:40.504Z,16.50
2017-05-14T00:44:09.488Z,16.60
2017-05-14T00:46:38.474Z,16.80
2017-05-14T00:49:07.729Z,16.60
2017-05-14T00:51:36.047Z,16.50
2017-05-14T00:54:05.049Z,16.40
2017-05-14T00:56:33.290Z,16.40
2017-05-14T00:59:01.506Z,16.40
2017-05-14T01:01:30.504Z,16.40
2017-05-14T01:03:59.608Z,16.40
2017-05-14T01:06:28.587Z,16.40
2017-05-14T01:08:56.823Z,16.30
2017-05-14T01:11:25.047Z,16.30
2017-05-14T01:13:54.096Z,16.30
2017-05-14T01:16:22.348Z,16.40
2017-05-14T01:18:50.592Z,16.40
2017-05-14T01:21:18.796Z,16.50
2017-05-14T01:23:47.290Z,16.50
2017-05-14T01:26:15.515Z,16.60
2017-05-14T01:28:44.107Z,16.60
2017-05-14T01:31:12.341Z,16.70
2017-05-14T01:33:41.448Z,16.70
2017-05-14T01:36:10.355Z,16.70
2017-05-14T01:38:38.593Z,16.70
2017-05-14T01:41:06.862Z,16.70
2017-05-14T01:43:35.153Z,16.60
2017-05-14T01:46:03.872Z,16.50
2017-05-14T01:48:32.129Z,16.60
2017-05-14T01:51:00.378Z,16.60
2017-05-14T01:53:28.611Z,16.60
2017-05-14T01:55:56.837Z,16.50
2017-05-14T01:58:25.122Z,16.50
2017-05-14T02:00:53.343Z,16.40
2017-05-14T02:03:22.325Z,16.20
2017-05-14T02:05:50.986Z,16.10
2017-05-14T02:08:19.269Z,16.00
2017-05-14T02:10:47.483Z,16.00
2017-05-14T02:13:16.467Z,16.00
2017-05-14T02:15:44.824Z,16.00
2017-05-14T02:18:13.069Z,15.90
2017-05-14T02:20:41.300Z,15.90
2017-05-14T02:23:09.542Z,15.80
2017-05-14T02:25:37.827Z,15.80
2017-05-14T02:28:06.947Z,16.00
2017-05-14T02:30:35.170Z,16.00
2017-05-14T02:33:03.422Z,16.20
2017-05-14T02:35:31.665Z,16.20
2017-05-14T02:37:59.918Z,16.10
2017-05-14T02:40:28.717Z,16.00
2017-05-14T02:42:57.668Z,15.90
2017-05-14T02:45:25.938Z,15.80
2017-05-14T02:47:54.919Z,15.80
2017-05-14T02:50:24.580Z,15.90
2017-05-14T02:52:52.800Z,15.90
2017-05-14T02:55:21.753Z,16.00
2017-05-14T02:57:50.007Z,15.90
2017-05-14T03:00:18.246Z,15.90
2017-05-14T03:02:47.221Z,15.90
2017-05-14T03:05:15.489Z,15.80
2017-05-14T03:07:43.723Z,15.70
2017-05-14T03:10:11.948Z,15.80
2017-05-14T03:12:40.191Z,15.80
2017-05-14T03:15:08.058Z,16.00
2017-05-14T03:17:36.303Z,16.00
2017-05-14T03:20:05.591Z,15.90
2017-05-14T03:22:33.823Z,16.10
2017-05-14T03:25:02.052Z,16.10
2017-05-14T03:27:31.176Z,16.00
2017-05-14T03:29:59.394Z,15.80
2017-05-14T03:32:27.644Z,15.80
2017-05-14T03:34:55.866Z,15.80
2017-05-14T03:37:24.840Z,15.70
2017-05-14T03:39:53.504Z,15.70
2017-05-14T03:42:21.779Z,15.70
2017-05-14T03:44:50.050Z,15.70
2017-05-14T03:47:25.331Z,15.70
2017-05-14T03:49:53.649Z,15.80
2017-05-14T03:52:21.895Z,15.70
2017-05-14T03:54:50.873Z,15.70
2017-05-14T03:57:19.120Z,15.70
2017-05-14T03:59:47.439Z,15.80
2017-05-14T04:02:16.403Z,15.80
2017-05-14T04:04:44.658Z,15.90
2017-05-14T04:07:12.917Z,16.00
2017-05-14T04:09:41.861Z,16.10
2017-05-14T04:12:10.117Z,16.30
2017-05-14T04:14:38.351Z,16.10
2017-05-14T04:17:06.582Z,16.10
2017-05-14T04:19:34.854Z,15.90
2017-05-14T04:22:03.121Z,15.90
2017-05-14T04:24:31.355Z,15.90
2017-05-14T04:26:59.193Z,15.90
2017-05-14T04:29:27.440Z,15.90
2017-05-14T04:31:55.664Z,15.90
2017-05-14T04:34:24.626Z,16.00
2017-05-14T04:36:52.894Z,16.00
2017-05-14T04:39:21.119Z,16.00
2017-05-14T04:41:50.120Z,16.00
2017-05-14T04:44:18.452Z,16.00
2017-05-14T04:46:46.721Z,16.00
2017-05-14T04:49:14.971Z,16.00
2017-05-14T04:51:43.206Z,16.00
2017-05-14T05:07:17.222Z,16.20
2017-05-14T05:09:46.199Z,16.40
2017-05-14T05:12:15.177Z,16.60
2017-05-14T05:14:43.405Z,16.80
2017-05-14T05:17:11.647Z,16.80
2017-05-14T05:19:40.615Z,16.80
2017-05-14T05:22:08.868Z,16.90
2017-05-14T05:24:37.116Z,16.90
2017-05-14T05:27:05.347Z,16.90
2017-05-14T05:29:33.582Z,17.00
2017-05-14T05:32:01.831Z,17.00
2017-05-14T05:34:30.806Z,16.90
2017-05-14T05:36:59.039Z,16.90
2017-05-14T05:39:27.323Z,16.90
2017-05-14T05:41:55.555Z,16.80
2017-05-14T05:44:24.531Z,17.00
2017-05-14T05:46:52.791Z,17.10
2017-05-14T05:49:21.004Z,17.20
2017-05-14T05:51:49.270Z,17.30
2017-05-14T05:54:17.136Z,17.40
2017-05-14T05:56:46.119Z,17.60
2017-05-14T05:59:15.129Z,17.50
2017-05-14T06:01:44.115Z,17.50
2017-05-14T06:04:13.102Z,17.50
2017-05-14T06:06:41.364Z,17.60
2017-05-14T06:09:09.611Z,17.90
2017-05-14T06:11:38.005Z,18.00
2017-05-14T06:14:06.270Z,18.00
2017-05-14T06:16:34.925Z,18.10
2017-05-14T06:19:03.156Z,18.10
2017-05-14T06:21:31.441Z,18.00
2017-05-14T06:23:59.646Z,18.00
2017-05-14T06:26:27.891Z,18.10
2017-05-14T06:28:56.183Z,18.30
2017-05-14T06:31:24.464Z,18.40
2017-05-14T06:33:53.459Z,18.50
2017-05-14T06:36:21.693Z,18.60
2017-05-14T06:38:49.943Z,18.60
2017-05-14T06:41:18.177Z,18.80
2017-05-14T06:43:46.436Z,19.20
2017-05-14T06:46:14.786Z,19.10
2017-05-14T06:48:43.051Z,19.20
2017-05-14T06:51:11.311Z,19.40
2017-05-14T06:53:44.366Z,19.80
2017-05-14T06:56:12.590Z,20.20
2017-05-14T06:58:41.010Z,20.50
2017-05-14T07:01:17.802Z,20.70
2017-05-14T07:03:46.110Z,21.00
2017-05-14T07:06:14.387Z,21.40
2017-05-14T07:08:43.311Z,22.10
2017-05-14T07:11:11.537Z,22.70
2017-05-14T07:13:41.630Z,23.30
2017-05-14T07:16:09.881Z,23.50
2017-05-14T07:18:38.164Z,24.00
2017-05-14T07:21:06.399Z,24.30
2017-05-14T07:23:35.394Z,24.20
2017-05-14T07:26:04.379Z,24.30
2017-05-14T07:28:36.184Z,24.70
2017-05-14T07:31:04.470Z,25.20
2017-05-14T07:33:32.709Z,25.70
2017-05-14T07:36:00.964Z,25.90
2017-05-14T07:38:29.192Z,25.30
2017-05-14T07:40:57.437Z,24.70
2017-05-14T07:43:25.871Z,24.20
2017-05-14T07:45:54.092Z,23.90
2017-05-14T07:48:23.059Z,23.80
2017-05-14T07:50:51.331Z,24.60
2017-05-14T07:53:19.699Z,25.30
2017-05-14T07:55:47.930Z,25.60
2017-05-14T07:58:16.175Z,25.20
2017-05-14T08:00:44.423Z,25.10
2017-05-14T08:03:12.655Z,25.70
2017-05-14T08:05:41.640Z,26.70
2017-05-14T08:08:09.911Z,27.20
2017-05-14T08:10:38.913Z,27.50
2017-05-14T08:13:07.947Z,27.30
2017-05-14T08:15:36.184Z,26.80
2017-05-14T08:18:04.433Z,26.00
2017-05-14T08:20:32.711Z,25.50
2017-05-14T08:23:00.980Z,25.80
2017-05-14T08:25:29.199Z,25.70
2017-05-14T08:27:57.449Z,25.80
2017-05-14T08:30:25.690Z,26.00
2017-05-14T08:32:53.935Z,26.20
2017-05-14T08:35:22.194Z,26.70
2017-05-14T08:37:51.180Z,26.20
2017-05-14T08:40:20.153Z,26.40
2017-05-14T08:42:48.396Z,26.60
2017-05-14T08:45:16.630Z,26.50
2017-05-14T08:47:45.624Z,26.20
2017-05-14T08:50:14.669Z,26.50
2017-05-14T08:52:42.932Z,26.60
2017-05-14T08:55:11.168Z,26.90
2017-05-14T08:57:40.212Z,27.00
2017-05-14T09:00:08.463Z,26.60
2017-05-14T09:02:36.699Z,25.80
2017-05-14T09:05:04.939Z,25.40
2017-05-14T09:07:33.200Z,26.00
2017-05-14T09:10:01.515Z,26.40
2017-05-14T09:12:29.728Z,26.80
2017-05-14T09:14:58.359Z,26.80
2017-05-14T09:17:26.612Z,27.50
2017-05-14T09:19:54.855Z,27.60
2017-05-14T09:22:23.097Z,27.80
2017-05-14T09:24:51.963Z,28.00
2017-05-14T09:27:20.192Z,28.30
2017-05-14T09:29:48.452Z,28.60
2017-05-14T09:32:16.725Z,28.80
2017-05-14T09:34:44.962Z,29.40
2017-05-14T09:37:13.206Z,29.30
2017-05-14T09:39:42.213Z,28.90
2017-05-14T09:42:11.489Z,28.80
2017-05-14T09:44:39.707Z,27.90
2017-05-14T09:47:08.222Z,27.10
2017-05-14T09:49:36.517Z,26.40
2017-05-14T09:52:05.546Z,26.10
2017-05-14T09:54:33.573Z,26.10
2017-05-14T09:57:01.887Z,28.90
2017-05-14T09:59:30.855Z,29.90
2017-05-14T10:01:59.127Z,30.30
2017-05-14T10:04:27.356Z,30.50
2017-05-14T10:06:55.583Z,31.00
2017-05-14T10:09:23.854Z,30.90
2017-05-14T10:11:55.793Z,30.30
2017-05-14T10:14:25.938Z,30.50
2017-05-14T10:16:54.151Z,30.50
2017-05-14T10:19:23.125Z,30.20
2017-05-14T10:21:51.385Z,29.70
2017-05-14T10:24:19.627Z,29.40
2017-05-14T10:26:47.876Z,29.90
2017-05-14T10:29:16.864Z,29.30
2017-05-14T10:31:45.835Z,28.30
2017-05-14T10:34:14.060Z,27.40
2017-05-14T10:36:42.323Z,27.60
2017-05-14T10:39:10.632Z,28.60
2017-05-14T10:41:38.859Z,27.90
2017-05-14T10:44:07.889Z,27.70
2017-05-14T10:46:36.115Z,28.80
2017-05-14T10:49:04.345Z,30.00
2017-05-14T10:51:32.654Z,30.10
2017-05-14T10:54:02.196Z,30.50
2017-05-14T10:56:30.447Z,30.50
2017-05-14T10:58:58.722Z,30.30
2017-05-14T11:01:26.991Z,31.30
2017-05-14T11:03:55.237Z,31.50
2017-05-14T11:06:23.484Z,32.20
2017-05-14T11:08:51.707Z,30.50
2017-05-14T11:11:20.032Z,30.70
2017-05-14T11:13:48.733Z,30.40
2017-05-14T11:16:16.981Z,30.60
2017-05-14T11:18:45.243Z,29.60
2017-05-14T11:21:13.501Z,28.40
2017-05-14T11:23:41.734Z,27.70
2017-05-14T11:26:09.983Z,26.40
2017-05-14T11:28:38.980Z,26.00
2017-05-14T11:31:07.963Z,25.70
2017-05-14T11:33:36.211Z,25.80
2017-05-14T11:36:04.467Z,25.30
2017-05-14T11:38:32.718Z,25.30
2017-05-14T11:41:01.519Z,25.30
2017-05-14T11:43:29.778Z,24.90
2017-05-14T11:45:58.828Z,24.30
2017-05-14T11:48:27.042Z,24.00
2017-05-14T11:50:56.054Z,23.90
2017-05-14T11:53:24.287Z,23.80
2017-05-14T11:55:53.252Z,24.30
2017-05-14T11:58:21.885Z,24.50
2017-05-14T12:00:50.159Z,24.20
2017-05-14T12:03:18.412Z,24.00
2017-05-14T12:05:46.674Z,23.60
2017-05-14T12:08:14.534Z,23.20
2017-05-14T12:10:42.759Z,23.10
2017-05-14T12:13:11.104Z,22.90
2017-05-14T12:15:39.328Z,22.60
2017-05-14T12:18:08.323Z,22.40
2017-05-14T12:20:37.307Z,22.20
2017-05-14T12:23:07.237Z,22.00
2017-05-14T12:25:35.508Z,21.80
2017-05-14T12:28:04.518Z,21.60
2017-05-14T12:30:32.751Z,21.40
2017-05-14T12:33:01.003Z,21.20
2017-05-14T12:35:29.231Z,20.90
2017-05-14T12:37:58.224Z,20.70
2017-05-14T12:40:27.337Z,20.50
2017-05-14T12:42:55.353Z,20.60
2017-05-14T12:45:24.072Z,20.70
2017-05-14T12:47:53.083Z,20.60
2017-05-14T12:50:21.501Z,20.60
2017-05-14T12:52:49.369Z,20.40
2017-05-14T12:55:18.033Z,20.40
2017-05-14T12:57:46.271Z,20.60
2017-05-14T13:00:14.518Z,20.50
2017-05-14T13:02:42.785Z,20.50
2017-05-14T13:05:11.023Z,20.40
2017-05-14T13:07:39.347Z,20.60
2017-05-14T13:10:07.596Z,20.60
2017-05-14T13:12:36.166Z,20.60
2017-05-14T13:15:04.421Z,20.70
2017-05-14T13:17:33.415Z,21.00
2017-05-14T13:20:02.408Z,21.60
2017-05-14T13:22:31.410Z,22.70
2017-05-14T13:25:00.444Z,24.20
2017-05-14T13:27:28.673Z,26.30
2017-05-14T13:29:56.977Z,28.00
2017-05-14T13:32:25.224Z,28.90
2017-05-14T13:34:53.466Z,29.30
2017-05-14T13:37:21.704Z,29.60
2017-05-14T13:39:49.940Z,28.10
2017-05-14T13:42:18.204Z,27.70
2017-05-14T13:44:46.981Z,27.40
2017-05-14T13:47:15.271Z,26.50
2017-05-14T13:49:43.487Z,25.10
2017-05-14T13:52:12.472Z,24.00
2017-05-14T13:54:41.521Z,23.10
2017-05-14T13:57:09.756Z,22.60
2017-05-14T13:59:37.988Z,22.30
2017-05-14T14:02:06.240Z,22.30
2017-05-14T14:04:34.495Z,22.20
2017-05-14T14:07:03.288Z,22.20
2017-05-14T14:09:31.698Z,22.20
2017-05-14T14:11:59.923Z,22.00
2017-05-14T14:14:28.978Z,22.10
2017-05-14T14:16:57.204Z,22.10
2017-05-14T14:19:25.467Z,22.30
2017-05-14T14:21:53.729Z,22.40
2017-05-14T14:24:21.978Z,22.70
2017-05-14T14:26:50.244Z,23.00
2017-05-14T14:29:18.481Z,23.30
2017-05-14T14:31:46.761Z,23.00
2017-05-14T14:34:14.995Z,22.90
2017-05-14T14:36:43.232Z,22.90
2017-05-14T14:39:11.485Z,23.00
2017-05-14T14:41:40.475Z,23.00
2017-05-14T14:44:09.467Z,22.80
2017-05-14T14:46:38.466Z,22.60
2017-05-14T14:49:07.436Z,22.40
2017-05-14T14:51:35.663Z,22.40
2017-05-14T14:54:03.969Z,22.30
2017-05-14T14:56:32.185Z,22.10
2017-05-14T14:59:01.177Z,22.00
2017-05-14T15:01:30.209Z,22.10
2017-05-14T15:03:58.425Z,22.00
2017-05-14T15:06:26.663Z,22.10
2017-05-14T15:08:54.915Z,22.30
2017-05-14T15:11:24.359Z,22.50
2017-05-14T15:13:52.578Z,22.40
2017-05-14T15:16:21.621Z,22.20
2017-05-14T15:18:49.847Z,21.90
2017-05-14T15:21:18.818Z,21.30
2017-05-14T15:23:47.088Z,21.10
2017-05-14T15:26:15.334Z,21.00
2017-05-14T15:28:44.597Z,20.90
2017-05-14T15:31:13.574Z,20.70
2017-05-14T15:33:42.484Z,20.80
2017-05-14T15:36:11.475Z,20.60
2017-05-14T15:38:40.490Z,20.70
2017-05-14T15:41:08.702Z,20.60
2017-05-14T15:43:36.986Z,20.60
2017-05-14T15:46:05.266Z,20.50
2017-05-14T15:48:33.498Z,20.50
2017-05-14T15:51:01.771Z,20.60
2017-05-14T15:53:30.188Z,20.70
2017-05-14T15:55:58.409Z,20.60
2017-05-14T15:58:28.010Z,20.30
2017-05-14T16:00:57.810Z,20.30
2017-05-14T16:03:26.051Z,20.40
2017-05-14T16:05:56.590Z,20.50
2017-05-14T16:08:24.825Z,20.60
2017-05-14T16:10:53.072Z,20.70
2017-05-14T16:13:21.322Z,20.80
2017-05-14T16:15:49.638Z,20.80
2017-05-14T16:18:17.932Z,20.70
2017-05-14T16:20:47.759Z,20.70
2017-05-14T16:23:16.048Z,20.90
2017-05-14T16:25:44.782Z,20.90
2017-05-14T16:28:13.177Z,21.40
2017-05-14T16:30:42.191Z,21.10
2017-05-14T16:33:10.480Z,21.30
2017-05-14T16:35:38.788Z,21.20
2017-05-14T16:38:07.026Z,21.50
2017-05-14T16:40:35.431Z,21.90
2017-05-14T16:43:03.699Z,21.90
2017-05-14T16:45:31.982Z,21.70
2017-05-14T16:48:00.207Z,21.80
2017-05-14T16:50:29.262Z,21.70
2017-05-14T16:52:58.708Z,21.60
2017-05-14T16:55:27.059Z,21.20
2017-05-14T16:57:55.282Z,21.10
2017-05-14T17:00:23.506Z,21.20
2017-05-14T17:02:51.845Z,21.20
2017-05-14T17:05:20.116Z,21.30
2017-05-14T17:07:49.895Z,21.20
2017-05-14T17:10:18.205Z,21.20
2017-05-14T17:12:46.862Z,20.90
2017-05-14T17:15:15.072Z,20.70
2017-05-14T17:17:43.295Z,20.70
2017-05-14T17:20:11.576Z,20.60
2017-05-14T17:22:40.049Z,20.60
2017-05-14T17:25:08.953Z,20.50
2017-05-14T17:27:37.205Z,20.40
2017-05-14T17:30:05.439Z,20.40
2017-05-14T17:32:33.670Z,20.50
2017-05-14T17:35:01.925Z,20.70
2017-05-14T17:37:30.180Z,20.70
2017-05-14T17:39:58.481Z,20.50
2017-05-14T17:42:26.703Z,20.30
2017-05-14T17:44:55.680Z,20.00
2017-05-14T17:47:23.963Z,20.10
2017-05-14T17:49:52.227Z,19.90
2017-05-14T17:52:20.456Z,20.00
2017-05-14T17:54:48.725Z,19.90
2017-05-14T17:57:17.759Z,19.80
2017-05-14T17:59:46.032Z,19.70
2017-05-14T18:02:14.309Z,19.90
2017-05-14T18:04:42.552Z,19.70
2017-05-14T18:07:10.880Z,19.60
2017-05-14T18:09:39.119Z,19.70
2017-05-14T18:12:07.379Z,19.50
2017-05-14T18:14:36.429Z,19.30
2017-05-14T18:17:04.659Z,19.20
2017-05-14T18:19:32.907Z,19.30
2017-05-14T18:22:01.928Z,19.40
2017-05-14T18:24:30.151Z,19.30
2017-05-14T18:26:58.520Z,19.20
2017-05-14T18:29:27.670Z,19.10
2017-05-14T18:31:56.648Z,19.10
2017-05-14T18:34:24.911Z,19.10
2017-05-14T18:36:53.192Z,18.90
2017-05-14T18:39:21.430Z,18.90
2017-05-14T18:41:49.685Z,18.90
2017-05-14T18:44:17.951Z,19.10
2017-05-14T18:46:46.925Z,19.00
2017-05-14T18:49:15.916Z,19.10
2017-05-14T18:51:44.172Z,19.10
2017-05-14T18:54:12.415Z,19.00
2017-05-14T18:56:40.659Z,18.80
2017-05-14T18:59:09.643Z,18.70
2017-05-14T19:01:38.624Z,18.60
2017-05-14T19:04:06.883Z,18.80
2017-05-14T19:06:35.115Z,18.90
2017-05-14T19:09:03.350Z,18.80
2017-05-14T19:11:31.633Z,18.70
2017-05-14T19:14:00.624Z,18.80
2017-05-14T19:16:28.885Z,18.60
2017-05-14T19:18:57.306Z,18.60
2017-05-14T19:21:26.282Z,18.70
2017-05-14T19:23:54.536Z,18.80
2017-05-14T19:26:22.824Z,18.50
2017-05-14T19:28:51.055Z,18.40
2017-05-14T19:31:19.295Z,18.50
2017-05-14T19:33:47.584Z,18.40
2017-05-14T19:36:16.946Z,18.30
2017-05-14T19:38:45.191Z,18.30
2017-05-14T19:41:13.589Z,18.20
2017-05-14T19:43:41.856Z,18.30
2017-05-14T19:46:10.071Z,18.30
2017-05-14T19:48:38.331Z,18.40
2017-05-14T19:51:06.574Z,18.40
2017-05-14T19:53:36.025Z,18.40
2017-05-14T19:56:04.289Z,18.40
2017-05-14T19:58:32.961Z,18.40
2017-05-14T20:01:01.357Z,18.20
2017-05-14T20:03:29.594Z,18.40
2017-05-14T20:05:57.867Z,18.50
2017-05-14T20:08:26.109Z,18.60
2017-05-14T20:10:55.096Z,18.60
2017-05-14T20:13:23.371Z,18.60
2017-05-14T20:15:51.595Z,18.60
2017-05-14T20:18:19.835Z,18.50
2017-05-14T20:20:48.891Z,18.50
2017-05-14T20:23:17.115Z,18.50
2017-05-14T20:25:46.123Z,18.50
2017-05-14T20:28:14.356Z,18.50
2017-05-14T20:30:42.615Z,18.40
2017-05-14T20:33:10.892Z,18.40
2017-05-14T20:35:39.124Z,18.40
2017-05-14T20:38:07.443Z,18.40
2017-05-14T20:40:35.690Z,18.40
2017-05-14T20:43:03.947Z,18.40
2017-05-14T20:45:32.912Z,18.30
2017-05-14T20:48:01.309Z,18.40
2017-05-14T20:50:29.547Z,18.30
2017-05-14T20:52:57.792Z,18.30
2017-05-14T20:55:26.040Z,18.20
2017-05-14T20:57:55.019Z,18.00
2017-05-14T21:00:23.273Z,17.80
2017-05-14T21:02:51.520Z,17.70
2017-05-14T21:05:20.668Z,17.50
2017-05-14T21:07:48.929Z,17.30
2017-05-14T21:10:17.185Z,17.20
2017-05-14T21:12:46.312Z,17.10
2017-05-14T21:15:14.674Z,17.00
2017-05-14T21:17:42.924Z,17.00
2017-05-14T21:20:11.152Z,17.10
2017-05-14T21:22:39.421Z,17.10
2017-05-14T21:25:07.690Z,17.10
2017-05-14T21:27:35.928Z,17.10
2017-05-14T21:30:04.184Z,17.00
2017-05-14T21:32:33.165Z,17.00
2017-05-14T21:35:02.143Z,17.00
2017-05-14T21:37:30.388Z,17.10
2017-05-14T21:39:58.712Z,17.10
2017-05-14T21:42:27.699Z,17.00
2017-05-14T21:44:55.972Z,17.00
2017-05-14T21:47:24.328Z,16.90
2017-05-14T21:49:52.570Z,16.90
2017-05-14T21:52:21.278Z,16.90
2017-05-14T21:54:51.454Z,17.00
2017-05-14T21:57:20.424Z,17.10
2017-05-14T21:59:48.661Z,17.10
2017-05-14T22:02:16.899Z,17.00
2017-05-14T22:04:45.891Z,16.90
2017-05-14T22:07:14.156Z,16.90
2017-05-14T22:09:42.406Z,16.80
2017-05-14T22:12:10.632Z,16.90
2017-05-14T22:14:39.647Z,16.80
2017-05-14T22:17:07.896Z,16.80
2017-05-14T22:19:36.867Z,16.80
2017-05-14T22:22:05.123Z,16.70
2017-05-14T22:24:33.365Z,16.60
2017-05-14T22:27:01.596Z,16.50
2017-05-14T22:29:29.843Z,16.50
2017-05-14T22:31:58.087Z,16.60
2017-05-14T22:34:26.325Z,16.70
2017-05-14T22:36:54.585Z,16.70
2017-05-14T22:39:22.812Z,16.70
2017-05-14T22:41:51.052Z,16.60
2017-05-14T22:44:19.302Z,16.40
2017-05-14T22:46:47.530Z,16.40
2017-05-14T22:49:16.523Z,16.40
2017-05-14T22:51:45.540Z,16.30
2017-05-14T22:54:13.757Z,16.30
2017-05-14T22:56:42.025Z,16.00
2017-05-14T22:59:10.249Z,16.00
2017-05-14T23:01:38.481Z,16.10
2017-05-14T23:04:06.729Z,16.20
2017-05-14T23:06:35.563Z,16.30
2017-05-14T23:09:03.824Z,16.40
2017-05-14T23:11:32.206Z,16.40
2017-05-14T23:14:00.440Z,16.40
2017-05-14T23:16:28.662Z,16.30
2017-05-14T23:18:56.903Z,16.00
2017-05-14T23:21:25.171Z,15.80
2017-05-14T23:23:53.409Z,15.80
2017-05-14T23:26:21.657Z,15.90
2017-05-14T23:28:49.876Z,16.00
2017-05-14T23:31:18.857Z,16.10
2017-05-14T23:33:47.124Z,16.00
2017-05-14T23:36:15.383Z,16.10
2017-05-14T23:38:43.625Z,16.10
2017-05-14T23:41:11.891Z,16.00
2017-05-14T23:43:40.127Z,15.90
2017-05-14T23:46:08.482Z,15.80
2017-05-14T23:48:36.695Z,15.60
2017-05-14T23:51:04.920Z,15.40
2017-05-14T23:53:33.207Z,15.50
